Time;durP1;ratioP1;P1;durP2;ratioP2;P2;SDS_P1;SDS_P2;PMS_P1;PMS_P2;Temp;Humidity;BMP_temperature;BMP_pressure;BME280_temperature;BME280_humidity;BME280_pressure;Samples;Min_cycle;Max_cycle;Signal;HPM_P1;HPM_P2
2023/12/08 00:05:07;;;;;;;2.88;0.60;;;;;;;16.46;100.00;100878.66;10576629;28;20056;-77
2023/12/08 00:10:29;;;;;;;4.22;0.80;;;;;;;16.63;100.00;100887.44;10574935;28;20040;-77
2023/12/08 00:15:52;;;;;;;2.60;1.13;;;;;;;16.64;100.00;100894.56;10578222;28;20123;-77
2023/12/08 00:21:16;;;;;;;2.22;0.70;;;;;;;16.44;100.00;100897.31;10578092;28;20070;-77
2023/12/08 00:26:38;;;;;;;3.25;0.70;;;;;;;16.36;100.00;100899.13;10592328;27;20058;-78
2023/12/08 00:32:01;;;;;;;5.97;1.92;;;;;;;16.17;100.00;100900.13;10602891;27;20047;-77
2023/12/08 00:37:25;;;;;;;2.53;0.98;;;;;;;15.89;100.00;100894.03;10607490;27;20055;-78
2023/12/08 00:42:48;;;;;;;3.13;0.80;;;;;;;15.68;100.00;100902.13;10588000;27;20134;-76
2023/12/08 00:48:11;;;;;;;3.10;1.00;;;;;;;15.43;100.00;100901.22;10558205;27;20468;-77
2023/12/08 00:53:34;;;;;;;2.72;0.70;;;;;;;15.14;100.00;100898.63;10566565;27;20052;-77
2023/12/08 00:58:57;;;;;;;0.80;0.60;;;;;;;14.93;100.00;100893.31;10575333;27;20063;-78
2023/12/08 01:04:19;;;;;;;1.90;0.80;;;;;;;15.10;100.00;100895.06;10597492;27;20122;-77
2023/12/08 01:09:43;;;;;;;1.63;0.80;;;;;;;14.68;100.00;100890.66;10582188;27;20392;-77
2023/12/08 01:15:07;;;;;;;1.73;0.77;;;;;;;14.43;100.00;100880.91;10585996;27;20056;-78
2023/12/08 01:20:29;;;;;;;4.25;0.70;;;;;;;14.10;100.00;100879.00;10556162;27;20052;-77
2023/12/08 01:25:53;;;;;;;1.75;0.77;;;;;;;14.00;100.00;100873.66;10569621;27;20043;-77
2023/12/08 01:31:16;;;;;;;1.30;0.68;;;;;;;13.97;100.00;100874.53;10564449;28;20382;-77
2023/12/08 01:36:38;;;;;;;2.03;0.60;;;;;;;14.02;100.00;100874.56;10596609;27;20115;-77
2023/12/08 01:42:02;;;;;;;2.95;0.70;;;;;;;14.00;100.00;100865.69;10562101;27;20075;-77
2023/12/08 01:47:25;;;;;;;3.75;0.75;;;;;;;14.02;100.00;100870.13;10577344;27;20421;-77
2023/12/08 01:52:49;;;;;;;4.13;1.02;;;;;;;13.90;100.00;100862.13;10593249;27;20051;-77
2023/12/08 01:58:13;;;;;;;1.27;0.50;;;;;;;13.88;100.00;100861.22;10590801;27;20134;-77
2023/12/08 02:03:36;;;;;;;0.70;0.50;;;;;;;13.85;100.00;100864.75;10585610;27;20470;-77
2023/12/08 02:08:59;;;;;;;1.50;0.98;;;;;;;13.84;100.00;100863.00;10558460;27;20135;-77
2023/12/08 02:14:23;;;;;;;1.40;0.65;;;;;;;13.82;100.00;100864.75;10591055;27;20047;-77
2023/12/08 02:19:46;;;;;;;0.93;0.70;;;;;;;13.61;100.00;100869.06;10568170;27;20092;-77
2023/12/08 02:25:10;;;;;;;1.15;0.65;;;;;;;13.38;100.00;100863.66;10579525;27;20420;-78
2023/12/08 02:30:33;;;;;;;0.90;0.63;;;;;;;13.46;100.00;100873.41;10548110;28;20111;-78
2023/12/08 02:35:57;;;;;;;2.92;1.10;;;;;;;13.47;100.00;100859.28;10593980;27;20059;-77
2023/12/08 02:41:21;;;;;;;3.47;2.17;;;;;;;13.26;100.00;100872.41;10585621;27;20065;-77
2023/12/08 02:46:44;;;;;;;1.00;0.85;;;;;;;13.25;100.00;100872.41;10564424;27;20167;-77
2023/12/08 02:52:07;;;;;;;1.90;0.88;;;;;;;13.24;100.00;100870.63;10572609;27;20055;-77
2023/12/08 02:57:31;;;;;;;2.00;0.65;;;;;;;12.90;100.00;100878.31;10548136;27;20039;-77
2023/12/08 03:02:53;;;;;;;2.05;0.70;;;;;;;12.83;100.00;100880.88;10568825;27;20071;-77
2023/12/08 03:08:16;;;;;;;2.30;0.90;;;;;;;12.91;100.00;100882.75;10590037;27;20051;-77
2023/12/08 03:13:40;;;;;;;1.10;0.80;;;;;;;12.87;100.00;100872.06;10567780;27;20036;-77
2023/12/08 03:19:02;;;;;;;6.28;0.95;;;;;;;13.06;100.00;100881.97;10571444;27;20043;-77
2023/12/08 03:24:24;;;;;;;1.00;0.90;;;;;;;13.30;100.00;100883.94;10580981;27;20039;-77
2023/12/08 03:29:48;;;;;;;1.75;0.90;;;;;;;13.10;100.00;100879.34;10561223;27;20488;-77
2023/12/08 03:35:11;;;;;;;1.55;0.90;;;;;;;12.95;100.00;100883.63;10559510;27;20134;-77
2023/12/08 03:40:33;;;;;;;1.88;0.70;;;;;;;12.81;100.00;100882.63;10580940;27;20100;-77
2023/12/08 03:45:57;;;;;;;2.17;0.82;;;;;;;12.93;100.00;100877.47;10582282;27;20078;-78
2023/12/08 03:51:19;;;;;;;2.17;1.00;;;;;;;12.76;100.00;100880.84;10570136;28;20048;-77
2023/12/08 03:56:42;;;;;;;3.13;0.90;;;;;;;12.84;100.00;100878.25;10566668;28;20711;-76
2023/12/08 04:02:06;;;;;;;2.67;1.05;;;;;;;12.92;100.00;100868.63;10599086;27;20496;-77
2023/12/08 04:07:28;;;;;;;2.85;0.98;;;;;;;12.84;100.00;100867.66;10580848;27;20035;-77
2023/12/08 04:12:51;;;;;;;3.05;0.75;;;;;;;12.88;100.00;100865.91;10580710;27;20056;-76
2023/12/08 04:18:15;;;;;;;1.55;1.00;;;;;;;12.75;100.00;100871.13;10594274;27;20043;-77
2023/12/08 04:23:38;;;;;;;2.38;0.90;;;;;;;12.65;100.00;100877.22;10587852;27;20404;-77
2023/12/08 04:29:00;;;;;;;1.85;1.10;;;;;;;12.56;100.00;100877.13;10586240;27;20848;-77
2023/12/08 04:34:24;;;;;;;2.65;1.05;;;;;;;12.55;100.00;100878.00;10580371;27;20078;-77
2023/12/08 04:39:46;;;;;;;2.00;1.15;;;;;;;12.22;100.00;100864.41;10597381;27;20039;-77
2023/12/08 04:45:09;;;;;;;1.73;1.00;;;;;;;12.34;100.00;100853.94;10592725;27;20051;-77
2023/12/08 04:50:33;;;;;;;2.17;1.45;;;;;;;12.66;100.00;100856.91;10586093;27;20150;-77
2023/12/08 04:55:56;;;;;;;1.15;1.05;;;;;;;12.92;100.00;100865.06;10558718;27;20047;-77
2023/12/08 05:01:18;;;;;;;1.73;1.00;;;;;;;12.84;100.00;100866.78;10595358;27;20043;-78
2023/12/08 05:06:42;;;;;;;11.63;10.50;;;;;;;12.81;100.00;100872.03;10584347;27;20108;-77
2023/12/08 05:12:05;;;;;;;9.55;8.43;;;;;;;12.90;100.00;100874.75;10576652;28;20051;-77
2023/12/08 05:17:28;;;;;;;10.45;8.20;;;;;;;12.69;100.00;100870.19;10572363;27;20043;-77
2023/12/08 05:22:51;;;;;;;11.57;10.20;;;;;;;12.66;100.00;100879.00;10576687;27;20481;-77
2023/12/08 05:28:14;;;;;;;8.35;6.00;;;;;;;12.43;100.00;100864.63;10573325;27;20125;-78
2023/12/08 05:33:36;;;;;;;7.63;5.78;;;;;;;12.73;100.00;100872.84;10566825;27;20071;-78
2023/12/08 05:39:00;;;;;;;6.57;4.03;;;;;;;12.81;100.00;100874.69;10556321;27;20489;-77
2023/12/08 05:44:23;;;;;;;22.52;17.50;;;;;;;12.94;100.00;100881.84;10550930;27;20074;-77
2023/12/08 05:49:45;;;;;;;10.35;6.65;;;;;;;13.12;100.00;100884.66;10562556;27;20070;-77
2023/12/08 05:55:09;;;;;;;8.38;5.03;;;;;;;13.21;100.00;100890.03;10574162;27;20063;-78
2023/12/08 06:00:33;;;;;;;12.70;5.85;;;;;;;13.15;100.00;100895.31;10549664;27;20069;-78
2023/12/08 06:05:55;;;;;;;10.02;5.10;;;;;;;13.21;100.00;100883.84;10579819;27;20047;-78
2023/12/08 06:11:19;;;;;;;10.23;5.93;;;;;;;14.90;100.00;100886.22;10570312;27;20504;-78
2023/12/08 06:16:43;;;;;;;13.82;10.80;;;;;;;17.99;93.23;100877.19;10573126;27;20058;-78
2023/12/08 06:22:05;;;;;;;20.38;16.63;;;;;;;20.35;71.92;100873.94;10566821;27;20052;-81
2023/12/08 06:27:29;;;;;;;12.43;10.38;;;;;;;20.03;67.23;100863.03;10551543;27;20105;-76
2023/12/08 06:32:52;;;;;;;5.53;3.47;;;;;;;17.71;90.82;100873.13;10566354;27;20392;-76
2023/12/08 06:38:14;;;;;;;6.38;4.38;;;;;;;19.64;72.68;100870.97;10576244;27;20437;-76
2023/12/08 06:43:39;;;;;;;6.22;4.68;;;;;;;19.47;76.33;100879.34;10584320;27;20134;-76
2023/12/08 06:49:01;;;;;;;9.05;6.57;;;;;;;21.56;64.06;100861.06;10568488;27;20622;-77
2023/12/08 06:54:24;;;;;;;4.88;3.80;;;;;;;22.00;60.42;100866.06;10572391;27;20473;-77
2023/12/08 06:59:48;;;;;;;3.08;1.67;;;;;;;21.46;63.91;100865.84;10563123;27;20511;-76
2023/12/08 07:05:11;;;;;;;3.25;1.58;;;;;;;21.94;58.70;100862.66;10559789;27;20051;-76
2023/12/08 07:10:34;;;;;;;4.22;1.52;;;;;;;21.77;59.93;100874.78;10551047;27;20050;-77
2023/12/08 07:15:58;;;;;;;4.00;1.70;;;;;;;21.95;60.67;100875.19;10560812;27;20044;-77
2023/12/08 07:21:20;;;;;;;3.50;1.55;;;;;;;22.06;59.26;100873.06;10571484;27;20048;-76
2023/12/08 07:26:43;;;;;;;2.42;1.30;;;;;;;22.23;55.94;100862.69;10565435;27;20639;-77
2023/12/08 07:32:08;;;;;;;2.30;1.10;;;;;;;23.08;49.54;100861.75;10558361;27;20044;-77
2023/12/08 07:37:34;;;;;;;2.38;1.00;;;;;;;24.67;44.21;100865.69;10547320;27;20133;-78
2023/12/08 07:42:56;;;;;;;4.72;1.40;;;;;;;23.55;45.53;100866.41;10568030;27;20101;-78
2023/12/08 07:48:21;;;;;;;2.00;1.05;;;;;;;23.04;46.15;100880.69;10561935;28;20040;-78
2023/12/08 07:53:44;;;;;;;3.08;1.00;;;;;;;22.62;46.67;100866.84;10564201;28;20412;-77
2023/12/08 07:59:07;;;;;;;1.90;1.00;;;;;;;24.01;43.51;100848.50;10538976;28;20207;-77
2023/12/08 08:04:31;;;;;;;2.85;0.90;;;;;;;24.31;41.62;100852.72;10548311;28;20043;-78
2023/12/08 08:09:53;;;;;;;2.00;0.85;;;;;;;23.58;41.85;100852.78;10553636;28;20146;-77
2023/12/08 08:15:16;;;;;;;2.30;1.15;;;;;;;23.46;41.49;100837.03;10565669;28;20070;-78
2023/12/08 08:20:41;;;;;;;2.25;1.00;;;;;;;23.52;40.73;100834.16;10570998;28;20048;-79
2023/12/08 08:26:05;;;;;;;2.28;1.20;;;;;;;24.06;39.58;100822.22;10569842;28;20047;-77
2023/12/08 08:31:28;;;;;;;1.75;0.90;;;;;;;25.57;36.92;100827.56;10542502;28;20043;-78
2023/12/08 08:36:52;;;;;;;1.23;0.93;;;;;;;26.65;34.92;100817.91;10553639;28;20073;-77
2023/12/08 08:42:14;;;;;;;1.33;0.93;;;;;;;26.15;35.34;100802.28;10536073;28;20047;-78
2023/12/08 08:47:37;;;;;;;3.90;1.25;;;;;;;26.19;34.52;100811.13;10556230;27;20051;-78
2023/12/08 08:53:01;;;;;;;3.13;1.30;;;;;;;29.12;31.49;100802.47;10588482;27;20450;-79
2023/12/08 08:58:24;;;;;;;1.65;1.23;;;;;;;31.01;28.40;100789.25;10570088;27;20065;-78
2023/12/08 09:03:47;;;;;;;1.00;0.90;;;;;;;29.73;29.10;100787.81;10596279;27;20598;-78
2023/12/08 09:09:11;;;;;;;2.42;1.40;;;;;;;27.75;32.03;100791.38;10573263;27;20060;-77
2023/12/08 09:14:33;;;;;;;4.78;1.83;;;;;;;26.15;33.18;100777.06;10580999;27;20445;-77
2023/12/08 09:19:56;;;;;;;4.03;2.00;;;;;;;24.92;35.62;100770.09;10577188;27;20139;-77
2023/12/08 09:25:21;;;;;;;3.63;2.03;;;;;;;23.86;38.58;100760.09;10574296;27;20047;-77
2023/12/08 09:30:44;;;;;;;3.20;1.30;;;;;;;23.52;39.21;100753.28;10565829;27;20396;-78
2023/12/08 09:36:07;;;;;;;2.15;0.98;;;;;;;23.71;38.33;100737.28;10573594;27;20130;-77
2023/12/08 09:41:33;;;;;;;1.13;0.90;;;;;;;24.91;36.21;100735.03;10594108;27;20040;-78
2023/12/08 09:46:57;;;;;;;2.15;0.70;;;;;;;25.74;34.92;100733.03;10583303;27;20067;-79
2023/12/08 09:52:21;;;;;;;2.50;1.33;;;;;;;25.74;34.04;100725.81;10577014;28;20043;-78
2023/12/08 09:57:45;;;;;;;3.42;0.70;;;;;;;24.80;35.43;100707.59;10581930;27;20051;-77
2023/12/08 10:03:08;;;;;;;0.80;0.60;;;;;;;27.83;31.43;100685.97;10587063;27;20054;-78
2023/12/08 10:08:31;;;;;;;2.60;0.50;;;;;;;27.76;30.25;100671.88;10551904;27;20172;-77
2023/12/08 10:13:56;;;;;;;1.15;0.50;;;;;;;26.70;30.61;100658.75;10557024;27;20055;-78
2023/12/08 10:19:22;;;;;;;1.40;0.63;;;;;;;25.77;32.20;100647.22;10558640;27;20067;-79
2023/12/08 10:24:45;;;;;;;3.38;0.80;;;;;;;23.76;36.20;100644.50;10574582;27;20050;-78
2023/12/08 10:30:11;;;;;;;1.73;0.73;;;;;;;22.75;37.29;100635.84;10580219;27;20450;-78
2023/12/08 10:35:33;;;;;;;1.00;0.70;;;;;;;22.12;37.42;100623.69;10602274;27;20133;-80
2023/12/08 10:40:58;;;;;;;1.52;0.65;;;;;;;21.88;36.90;100628.03;10587889;27;20134;-79
2023/12/08 10:46:24;;;;;;;2.25;0.82;;;;;;;21.74;36.04;100630.31;10586241;27;20158;-78
2023/12/08 10:51:48;;;;;;;1.15;0.80;;;;;;;21.99;34.93;100616.09;10575268;27;20047;-79
2023/12/08 10:57:11;;;;;;;2.53;0.60;;;;;;;21.75;34.66;100607.00;10570275;27;20050;-77
2023/12/08 11:02:37;;;;;;;0.85;0.60;;;;;;;21.60;34.75;100597.63;10562793;27;20439;-77
2023/12/08 11:08:04;;;;;;;2.40;0.73;;;;;;;21.90;35.49;100590.38;10580124;27;20126;-78
2023/12/08 11:13:29;;;;;;;0.87;0.67;;;;;;;21.97;35.21;100574.94;10565490;27;20496;-78
2023/12/08 11:18:56;;;;;;;1.65;0.60;;;;;;;21.75;34.89;100567.56;10588660;27;20455;-77
2023/12/08 11:24:19;;;;;;;1.27;0.88;;;;;;;21.78;35.10;100566.59;10577654;27;20096;-78
2023/12/08 11:29:50;;;;;;;1.25;0.80;;;;;;;21.44;35.57;100569.50;10558732;28;20054;-78
2023/12/08 11:35:18;;;;;;;1.90;0.80;;;;;;;21.28;35.75;100563.72;10560147;28;20503;-77
2023/12/08 11:40:54;;;;;;;5.07;0.90;;;;;;;21.16;35.85;100568.59;10573179;27;20504;-78
2023/12/08 11:46:17;;;;;;;4.13;1.80;;;;;;;21.14;36.88;100573.97;10570363;28;20497;-78
2023/12/08 11:52:02;;;;;;;3.20;1.02;;;;;;;21.02;37.22;100560.94;10573468;28;20047;-78
2023/12/08 11:57:25;;;;;;;6.18;1.25;;;;;;;20.96;38.60;100566.50;10561156;27;20043;-77
2023/12/08 12:02:49;;;;;;;2.47;1.00;;;;;;;21.14;39.20;100565.03;10585155;28;20058;-76
2023/12/08 12:08:14;;;;;;;6.10;1.08;;;;;;;21.48;39.10;100566.66;10553629;28;20101;-77
2023/12/08 12:13:38;;;;;;;6.90;1.42;;;;;;;21.34;38.50;100579.66;10575455;28;20098;-77
2023/12/08 12:19:01;;;;;;;1.65;0.85;;;;;;;21.43;37.85;100563.25;10572249;28;20071;-77
2023/12/08 12:24:25;;;;;;;3.53;0.95;;;;;;;21.02;38.86;100575.25;10559306;27;20077;-76
2023/12/08 12:29:48;;;;;;;5.22;1.58;;;;;;;21.12;39.56;100588.41;10579643;27;20108;-77
2023/12/08 12:35:10;;;;;;;2.90;1.30;;;;;;;21.35;38.67;100575.16;10580005;27;20168;-77
2023/12/08 12:40:34;;;;;;;3.80;1.00;;;;;;;21.43;37.99;100568.63;10580468;27;20049;-77
2023/12/08 12:46:03;;;;;;;5.28;1.02;;;;;;;20.89;38.16;100575.66;10569948;27;20101;-77
2023/12/08 12:51:36;;;;;;;1.77;0.70;;;;;;;20.80;38.82;100581.31;10589226;27;20138;-77
2023/12/08 12:57:01;;;;;;;4.70;0.82;;;;;;;20.65;38.50;100591.56;10603043;27;20423;-77
2023/12/08 13:02:30;;;;;;;4.63;0.90;;;;;;;20.11;40.17;100584.97;10587629;27;20134;-77
2023/12/08 13:07:58;;;;;;;5.47;1.10;;;;;;;19.44;41.21;100598.22;10606273;27;20112;-76
2023/12/08 13:13:22;;;;;;;9.15;1.50;;;;;;;19.05;42.49;100607.13;10606239;27;20526;-77
2023/12/08 13:18:48;;;;;;;4.50;1.30;;;;;;;19.22;41.70;100604.09;10606981;27;20043;-77
2023/12/08 13:24:11;;;;;;;7.35;1.00;;;;;;;19.07;42.49;100630.28;10593031;27;20146;-77
2023/12/08 13:29:36;;;;;;;4.57;1.33;;;;;;;18.52;48.00;100648.31;10606757;27;20047;-77
2023/12/08 13:34:58;;;;;;;13.23;1.70;;;;;;;18.46;52.45;100635.94;10605686;27;20523;-77
2023/12/08 13:40:25;;;;;;;8.98;1.58;;;;;;;18.32;55.88;100633.50;10601650;27;20563;-77
2023/12/08 13:45:49;;;;;;;7.85;1.30;;;;;;;17.48;61.53;100628.66;10613034;27;20043;-77
2023/12/08 13:51:12;;;;;;;4.20;1.10;;;;;;;17.13;64.95;100633.63;10587346;27;20058;-77
2023/12/08 13:56:35;;;;;;;5.25;1.38;;;;;;;17.08;65.10;100622.09;10566584;27;20084;-77
2023/12/08 14:01:59;;;;;;;5.65;1.45;;;;;;;16.90;64.50;100615.22;10589327;27;20456;-77
2023/12/08 14:07:22;;;;;;;3.90;1.17;;;;;;;16.66;65.64;100635.09;10608481;27;20183;-77
2023/12/08 14:12:44;;;;;;;8.27;1.17;;;;;;;16.60;66.57;100653.81;10602647;27;20070;-77
2023/12/08 14:18:09;;;;;;;4.65;1.35;;;;;;;16.65;66.15;100657.31;10593888;27;20135;-78
2023/12/08 14:23:31;;;;;;;1.70;0.70;;;;;;;16.96;61.62;100656.94;10577338;27;20035;-78
2023/12/08 14:28:54;;;;;;;2.78;0.80;;;;;;;16.71;58.28;100659.91;10600834;27;20043;-78
2023/12/08 14:34:18;;;;;;;4.22;1.45;;;;;;;16.47;57.28;100653.91;10590670;27;20663;-77
2023/12/08 14:39:41;;;;;;;2.10;0.70;;;;;;;16.29;58.28;100670.94;10603857;27;20055;-77
2023/12/08 14:45:04;;;;;;;7.95;0.95;;;;;;;16.24;58.81;100662.13;10575484;27;20058;-77
2023/12/08 14:50:29;;;;;;;1.98;0.50;;;;;;;15.90;60.83;100658.84;10580977;27;20055;-78
2023/12/08 14:55:51;;;;;;;3.90;0.93;;;;;;;15.69;65.65;100659.88;10562144;27;20048;-76
2023/12/08 15:01:17;;;;;;;4.25;0.70;;;;;;;15.45;77.69;100654.72;10598928;27;20051;-77
2023/12/08 15:06:42;;;;;;;3.13;1.17;;;;;;;15.13;84.88;100658.44;10582477;27;20054;-76
2023/12/08 15:12:05;;;;;;;4.22;0.80;;;;;;;14.88;87.04;100659.44;10556916;27;20055;-77
2023/12/08 15:17:28;;;;;;;4.70;0.98;;;;;;;14.66;87.41;100660.38;10572241;27;20040;-77
2023/12/08 15:22:58;;;;;;;3.55;0.77;;;;;;;14.34;88.45;100661.31;10572900;27;20057;-76
2023/12/08 15:28:21;;;;;;;1.48;0.82;;;;;;;14.22;89.01;100674.59;10567175;27;20154;-77
2023/12/08 15:33:44;;;;;;;4.03;1.15;;;;;;;14.27;88.28;100672.81;10567580;27;20043;-76
2023/12/08 15:39:08;;;;;;;3.63;1.05;;;;;;;14.32;88.55;100684.31;10578371;27;20042;-77
2023/12/08 15:44:30;;;;;;;8.40;1.13;;;;;;;14.55;88.46;100689.63;10625229;27;20051;-76
2023/12/08 15:49:53;;;;;;;4.03;1.65;;;;;;;14.91;85.86;100696.63;10590310;27;20119;-76
2023/12/08 15:55:17;;;;;;;6.72;0.98;;;;;;;15.09;85.30;100688.59;10603787;27;20104;-77
2023/12/08 16:00:41;;;;;;;2.15;1.10;;;;;;;15.35;86.21;100685.81;10604326;27;20086;-76
2023/12/08 16:06:04;;;;;;;4.50;1.10;;;;;;;15.48;90.36;100683.97;10598858;27;20047;-77
2023/12/08 16:11:31;;;;;;;9.07;2.95;;;;;;;15.80;92.16;100681.13;10622559;27;20047;-77
2023/12/08 16:16:53;;;;;;;5.68;1.80;;;;;;;15.68;100.00;100684.78;10603343;27;20107;-76
2023/12/08 16:22:16;;;;;;;4.32;1.27;;;;;;;15.36;100.00;100686.69;10616868;27;20461;-76
2023/12/08 16:27:41;;;;;;;5.95;1.50;;;;;;;15.42;100.00;100700.84;10594797;27;20039;-76
2023/12/08 16:33:04;;;;;;;5.80;2.08;;;;;;;15.60;100.00;100704.31;10608484;27;20444;-76
2023/12/08 16:38:26;;;;;;;4.03;1.75;;;;;;;15.68;100.00;100699.84;10562705;27;20048;-76
2023/12/08 16:43:50;;;;;;;2.95;1.30;;;;;;;15.50;100.00;100700.78;10584943;27;20369;-76
2023/12/08 16:49:13;;;;;;;6.30;3.13;;;;;;;15.55;97.65;100712.34;10570895;28;20088;-76
2023/12/08 16:54:36;;;;;;;13.90;12.38;;;;;;;15.71;91.54;100699.81;10558220;28;20044;-77
2023/12/08 17:00:00;;;;;;;9.55;5.85;;;;;;;15.82;88.61;100704.16;10571985;27;20546;-76
2023/12/08 17:05:23;;;;;;;9.30;4.05;;;;;;;15.84;85.53;100710.38;10571824;28;20052;-76
2023/12/08 17:10:46;;;;;;;4.82;3.85;;;;;;;16.09;84.53;100715.50;10563282;28;20059;-77
2023/12/08 17:16:10;;;;;;;7.55;4.85;;;;;;;15.93;88.56;100722.75;10564833;28;20147;-76
2023/12/08 17:21:33;;;;;;;5.57;3.75;;;;;;;15.89;89.53;100724.53;10574209;27;20058;-77
2023/12/08 17:26:56;;;;;;;7.78;4.55;;;;;;;15.78;90.05;100741.47;10547888;28;20043;-76
2023/12/08 17:32:20;;;;;;;10.80;7.95;;;;;;;15.68;89.79;100742.44;10563747;28;20055;-76
2023/12/08 17:37:42;;;;;;;13.90;7.47;;;;;;;15.75;87.97;100733.53;10548923;27;20074;-76
2023/12/08 17:43:05;;;;;;;4.57;3.00;;;;;;;15.78;85.72;100742.34;10563612;28;20043;-76
2023/12/08 17:48:29;;;;;;;14.48;8.95;;;;;;;15.92;79.61;100736.94;10562822;28;20519;-77
2023/12/08 17:53:52;;;;;;;4.72;2.47;;;;;;;15.76;77.19;100735.25;10563401;27;20047;-76
2023/12/08 17:59:14;;;;;;;11.10;6.50;;;;;;;15.78;76.63;100737.03;10562978;28;20052;-77
2023/12/08 18:04:40;;;;;;;4.50;2.10;;;;;;;15.71;74.95;100734.41;10558866;27;20135;-77
2023/12/08 18:10:03;;;;;;;2.92;2.00;;;;;;;15.64;70.25;100736.22;10562097;28;20047;-76
2023/12/08 18:15:26;;;;;;;2.10;1.30;;;;;;;15.53;68.13;100725.66;10547937;28;20134;-77
2023/12/08 18:20:50;;;;;;;3.67;2.60;;;;;;;15.27;68.83;100722.19;10548087;28;20097;-77
2023/12/08 18:26:13;;;;;;;5.65;3.05;;;;;;;15.15;69.12;100720.47;10598367;27;20047;-76
2023/12/08 18:31:35;;;;;;;2.83;2.25;;;;;;;15.03;68.47;100723.16;10603976;27;20527;-76
2023/12/08 18:37:00;;;;;;;4.55;2.95;;;;;;;15.02;65.81;100729.38;10599427;27;20038;-76
2023/12/08 18:42:23;;;;;;;2.65;1.50;;;;;;;14.92;62.90;100714.34;10565362;28;20055;-76
2023/12/08 18:47:45;;;;;;;5.90;4.25;;;;;;;14.81;59.84;100716.16;10560835;28;20512;-76
2023/12/08 18:53:09;;;;;;;3.78;1.80;;;;;;;14.61;59.51;100725.94;10547085;28;20047;-75
2023/12/08 18:58:33;;;;;;;2.25;1.20;;;;;;;14.81;56.62;100723.22;10546939;28;20138;-75
2023/12/08 19:03:56;;;;;;;5.75;3.10;;;;;;;14.87;55.59;100721.44;10592718;27;20559;-76
2023/12/08 19:09:21;;;;;;;2.67;2.03;;;;;;;14.76;56.13;100733.88;10570367;28;20128;-75
2023/12/08 19:14:44;;;;;;;1.92;1.17;;;;;;;14.78;55.14;100734.75;10564430;27;20062;-76
2023/12/08 19:20:07;;;;;;;4.10;2.45;;;;;;;15.18;54.60;100732.84;10569619;27;20506;-76
2023/12/08 19:25:31;;;;;;;4.05;1.80;;;;;;;15.03;54.30;100736.44;10569897;27;20668;-77
2023/12/08 19:30:53;;;;;;;1.75;1.20;;;;;;;15.13;54.78;100738.19;10582880;27;20573;-76
2023/12/08 19:36:16;;;;;;;2.40;1.20;;;;;;;15.36;54.35;100734.59;10590769;27;20135;-76
2023/12/08 19:41:40;;;;;;;1.73;1.10;;;;;;;15.39;54.58;100740.75;10546127;27;20051;-78
2023/12/08 19:47:02;;;;;;;3.00;1.65;;;;;;;15.41;55.02;100735.44;10576136;27;20085;-77
2023/12/08 19:52:25;;;;;;;7.28;4.95;;;;;;;15.15;56.21;100739.09;10593664;27;20668;-78
2023/12/08 19:57:49;;;;;;;5.13;3.33;;;;;;;14.99;57.26;100736.47;10596825;27;20508;-80
2023/12/08 20:03:11;;;;;;;6.07;3.40;;;;;;;14.91;58.54;100739.13;10574955;28;20043;-80
2023/12/08 20:08:33;;;;;;;11.75;7.82;;;;;;;14.87;59.26;100731.19;10575538;27;20043;-80
2023/12/08 20:13:59;;;;;;;3.67;2.38;;;;;;;14.96;59.63;100736.50;10566095;28;20055;-79
2023/12/08 20:19:22;;;;;;;4.30;1.60;;;;;;;14.95;59.90;100743.59;10592200;28;20162;-79
2023/12/08 20:24:45;;;;;;;2.22;1.50;;;;;;;15.07;59.91;100750.63;10578318;28;20067;-81
2023/12/08 20:30:10;;;;;;;4.75;2.90;;;;;;;15.26;58.94;100751.44;10578425;28;20047;-81
2023/12/08 20:35:33;;;;;;;6.15;3.33;;;;;;;15.47;58.73;100746.94;10573392;28;20617;-82
2023/12/08 20:40:56;;;;;;;11.30;6.63;;;;;;;15.71;57.71;100759.25;10561193;28;20039;-80
2023/12/08 20:46:20;;;;;;;19.90;9.55;;;;;;;15.75;58.96;100754.81;10590482;27;20043;-80
2023/12/08 20:51:42;;;;;;;18.23;9.68;;;;;;;15.75;60.04;100766.31;10575968;27;20060;-80
2023/12/08 20:57:05;;;;;;;5.65;2.67;;;;;;;15.80;60.39;100763.66;10591681;27;20055;-80
2023/12/08 21:02:29;;;;;;;11.85;7.65;;;;;;;15.86;60.54;100763.63;10586769;27;20499;-81
2023/12/08 21:07:52;;;;;;;7.38;3.05;;;;;;;15.88;60.85;100752.03;10608444;27;20058;-81
2023/12/08 21:13:15;;;;;;;3.92;2.20;;;;;;;15.88;61.27;100751.19;10593706;27;20047;-81
2023/12/08 21:18:39;;;;;;;4.57;1.80;;;;;;;15.83;62.29;100744.97;10595350;27;20051;-81
2023/12/08 21:24:01;;;;;;;5.20;2.00;;;;;;;15.89;61.92;100742.28;10605556;27;20054;-80
2023/12/08 21:29:24;;;;;;;3.30;1.70;;;;;;;15.90;63.05;100747.59;10597016;27;20051;-81
2023/12/08 21:34:48;;;;;;;3.22;1.92;;;;;;;15.80;65.93;100755.66;10606406;27;20070;-81
2023/12/08 21:40:11;;;;;;;4.47;2.60;;;;;;;15.67;68.49;100762.84;10599373;27;20048;-80
2023/12/08 21:45:34;;;;;;;9.77;4.05;;;;;;;15.40;76.91;100768.25;10564296;28;20405;-79
2023/12/08 21:50:59;;;;;;;5.45;2.03;;;;;;;14.96;89.33;100760.41;10578461;27;20050;-80
2023/12/08 21:56:23;;;;;;;2.72;1.70;;;;;;;14.75;94.30;100759.56;10563949;28;20059;-80
2023/12/08 22:01:45;;;;;;;3.72;1.60;;;;;;;14.54;100.00;100775.53;10583236;27;20046;-80
2023/12/08 22:07:11;;;;;;;3.15;2.08;;;;;;;14.22;100.00;100770.19;10591771;27;20043;-80
2023/12/08 22:12:34;;;;;;;2.47;1.70;;;;;;;14.05;100.00;100765.72;10605461;27;20120;-81
2023/12/08 22:17:56;;;;;;;6.03;3.45;;;;;;;14.03;100.00;100781.66;10606181;27;20074;-81
2023/12/08 22:23:21;;;;;;;4.05;1.75;;;;;;;14.02;100.00;100781.66;10598784;27;20089;-81
2023/12/08 22:28:43;;;;;;;3.60;2.15;;;;;;;13.97;100.00;100784.31;10549191;27;20374;-81
2023/12/08 22:34:06;;;;;;;3.33;1.40;;;;;;;13.80;100.00;100775.41;10570938;27;20079;-80
2023/12/08 22:39:30;;;;;;;3.47;1.83;;;;;;;13.24;100.00;100769.91;10568930;27;20388;-79
2023/12/08 22:44:54;;;;;;;2.40;1.75;;;;;;;12.92;100.00;100767.94;10594803;27;20378;-79
2023/12/08 22:50:16;;;;;;;2.83;1.70;;;;;;;12.71;100.00;100755.44;10585887;27;20063;-80
2023/12/08 22:55:41;;;;;;;1.92;1.65;;;;;;;12.47;100.00;100764.97;10583867;27;20129;-80
2023/12/08 23:01:03;;;;;;;2.38;2.17;;;;;;;12.19;100.00;100762.09;10593360;27;20100;-80
2023/12/08 23:06:25;;;;;;;2.65;1.85;;;;;;;12.24;100.00;100754.19;10574943;27;20391;-80
2023/12/08 23:11:49;;;;;;;4.85;2.05;;;;;;;12.24;100.00;100746.22;10567243;27;20103;-79
2023/12/08 23:17:11;;;;;;;2.53;1.88;;;;;;;12.33;100.00;100747.22;10598454;27;20092;-80
2023/12/08 23:22:34;;;;;;;5.18;2.00;;;;;;;12.49;100.00;100750.84;10572664;27;20048;-80
2023/12/08 23:28:00;;;;;;;3.63;2.45;;;;;;;12.58;100.00;100758.88;10596352;27;20088;-81
2023/12/08 23:33:23;;;;;;;3.75;2.10;;;;;;;12.46;100.00;100760.53;10573675;27;20118;-81
2023/12/08 23:38:47;;;;;;;5.63;3.20;;;;;;;12.32;100.00;100748.06;10578127;27;20564;-81
2023/12/08 23:44:14;;;;;;;4.57;2.83;;;;;;;12.41;100.00;100757.84;10571309;27;20035;-81
2023/12/08 23:49:37;;;;;;;3.20;1.70;;;;;;;12.47;100.00;100749.94;10582262;27;20063;-81
2023/12/08 23:54:59;;;;;;;4.78;2.47;;;;;;;12.58;100.00;100737.69;10583722;28;20397;-81
